Time;durP1;ratioP1;P1;durP2;ratioP2;P2;SDS_P1;SDS_P2;PMS_P1;PMS_P2;Temp;Humidity;BMP_temperature;BMP_pressure;BME280_temperature;BME280_humidity;BME280_pressure;Samples;Min_cycle;Max_cycle;Signal;HPM_P1;HPM_P2
2021/12/26 00:00:25;;;;;;;57.67;31.50;;;;;;;-10.02;100.00;98809.97;2086520;28;20226;-73
2021/12/26 00:01:28;;;;;;;58.22;31.17;;;;;;;-10.02;100.00;98817.72;2087195;28;20227;-72
2021/12/26 00:02:29;;;;;;;60.20;34.65;;;;;;;-10.03;100.00;98814.34;2087957;28;20317;-72
2021/12/26 00:03:32;;;;;;;58.17;32.40;;;;;;;-10.07;100.00;98807.91;2088078;28;20349;-73
2021/12/26 00:04:33;;;;;;;54.40;33.03;;;;;;;-10.05;100.00;98811.13;2087151;28;20414;-72
2021/12/26 00:05:35;;;;;;;56.13;32.35;;;;;;;-10.07;100.00;98814.84;2087377;28;20227;-72
2021/12/26 00:06:37;;;;;;;57.60;32.58;;;;;;;-10.09;100.00;98803.88;2087813;28;20277;-72
2021/12/26 00:07:41;;;;;;;63.63;33.08;;;;;;;-10.11;100.00;98805.84;2086554;28;20669;-73
2021/12/26 00:08:47;;;;;;;60.78;32.75;;;;;;;-10.11;100.00;98811.00;2087293;28;20244;-73
2021/12/26 00:09:48;;;;;;;55.30;32.00;;;;;;;-10.11;100.00;98811.78;2087159;28;20223;-72
2021/12/26 00:10:50;;;;;;;61.07;33.40;;;;;;;-10.12;100.00;98809.38;2078925;28;20235;-72
2021/12/26 00:11:51;;;;;;;67.18;34.45;;;;;;;-10.11;100.00;98811.78;2079145;28;20653;-72
2021/12/26 00:12:53;;;;;;;64.07;32.67;;;;;;;-10.09;100.00;98814.19;2078580;28;20338;-74
2021/12/26 00:13:55;;;;;;;65.47;33.63;;;;;;;-10.09;100.00;98809.03;2087263;28;20659;-73
2021/12/26 00:15:00;;;;;;;64.18;33.35;;;;;;;-10.09;100.00;98807.25;2086672;28;20230;-72
2021/12/26 00:16:02;;;;;;;62.05;34.47;;;;;;;-10.07;100.00;98809.69;2087375;28;20218;-72
2021/12/26 00:17:05;;;;;;;62.33;34.20;;;;;;;-10.10;100.00;98804.84;2086831;28;20306;-72
2021/12/26 00:18:05;;;;;;;62.90;34.70;;;;;;;-10.08;100.00;98805.47;2087901;28;20226;-73
2021/12/26 00:19:07;;;;;;;62.93;34.23;;;;;;;-10.08;100.00;98808.88;2087927;28;20229;-72
2021/12/26 00:20:10;;;;;;;68.07;34.58;;;;;;;-10.09;100.00;98819.38;2087432;28;20218;-73
2021/12/26 00:21:12;;;;;;;65.28;35.58;;;;;;;-10.09;100.00;98811.63;2087758;28;20223;-73
2021/12/26 00:22:14;;;;;;;62.40;33.60;;;;;;;-10.10;100.00;98813.41;2087249;28;20771;-72
2021/12/26 00:23:18;;;;;;;64.85;34.60;;;;;;;-10.13;100.00;98805.22;2087204;28;20219;-73
2021/12/26 00:24:19;;;;;;;62.70;33.05;;;;;;;-10.12;100.00;98810.19;2087104;28;20728;-73
2021/12/26 00:25:21;;;;;;;52.05;31.83;;;;;;;-10.17;100.00;98801.34;2087045;28;20218;-72
2021/12/26 00:26:22;;;;;;;60.35;32.88;;;;;;;-10.18;100.00;98808.28;2087128;28;20240;-72
2021/12/26 00:27:24;;;;;;;68.97;34.38;;;;;;;-10.20;100.00;98809.44;2087501;28;20296;-72
2021/12/26 00:28:26;;;;;;;61.93;34.93;;;;;;;-10.22;100.00;98811.41;2087807;28;20272;-72
2021/12/26 00:29:27;;;;;;;64.30;35.67;;;;;;;-10.24;100.00;98805.63;2087069;28;20717;-72
2021/12/26 00:30:31;;;;;;;61.80;34.03;;;;;;;-10.27;100.00;98804.97;2078933;28;20273;-72
2021/12/26 00:31:32;;;;;;;61.42;33.88;;;;;;;-10.28;100.00;98805.16;2078787;28;20231;-72
2021/12/26 00:32:33;;;;;;;64.90;34.45;;;;;;;-10.28;100.00;98802.56;2078664;28;20302;-73
2021/12/26 00:33:34;;;;;;;62.78;34.15;;;;;;;-10.33;100.00;98790.19;2087078;28;20247;-72
2021/12/26 00:34:37;;;;;;;62.97;33.40;;;;;;;-10.32;100.00;98802.13;2087021;28;20218;-72
2021/12/26 00:35:39;;;;;;;63.95;35.13;;;;;;;-10.32;100.00;98799.53;2078195;28;20224;-73
2021/12/26 00:36:42;;;;;;;60.25;34.28;;;;;;;-10.35;100.00;98802.44;2078956;28;20314;-73
2021/12/26 00:37:44;;;;;;;67.72;36.80;;;;;;;-10.33;100.00;98815.97;2079357;28;20306;-73
2021/12/26 00:38:47;;;;;;;69.00;34.60;;;;;;;-10.34;100.00;98808.38;2087156;28;20230;-73
2021/12/26 00:39:49;;;;;;;65.18;35.58;;;;;;;-10.35;100.00;98805.00;2086977;28;20560;-73
2021/12/26 00:40:51;;;;;;;72.10;35.53;;;;;;;-10.37;100.00;98806.16;2078742;28;20238;-73
2021/12/26 00:41:53;;;;;;;62.67;35.03;;;;;;;-10.39;100.00;98802.94;2078315;28;20231;-74
2021/12/26 00:42:58;;;;;;;66.88;34.38;;;;;;;-10.42;100.00;98811.84;2087056;28;20314;-73
2021/12/26 00:44:00;;;;;;;66.15;34.42;;;;;;;-10.43;100.00;98805.03;2086858;28;20242;-72
2021/12/26 00:45:01;;;;;;;67.40;35.55;;;;;;;-10.45;100.00;98803.63;2078785;28;20694;-73
2021/12/26 00:46:03;;;;;;;75.27;36.73;;;;;;;-10.49;100.00;98803.16;2087062;28;20652;-73
2021/12/26 00:47:04;;;;;;;67.63;35.85;;;;;;;-10.48;100.00;98807.34;2087647;28;20716;-73
2021/12/26 00:48:08;;;;;;;59.78;34.60;;;;;;;-10.49;100.00;98804.94;2086298;28;20253;-74
2021/12/26 00:49:13;;;;;;;63.45;34.85;;;;;;;-10.50;100.00;98805.91;2078615;28;20226;-74
2021/12/26 00:50:19;;;;;;;65.70;35.90;;;;;;;-10.50;100.00;98805.91;2086893;28;20277;-73
2021/12/26 00:51:20;;;;;;;65.70;35.75;;;;;;;-10.53;100.00;98803.66;2086881;28;20225;-73
2021/12/26 00:52:22;;;;;;;57.40;33.30;;;;;;;-10.51;100.00;98802.53;2078504;28;20303;-73
2021/12/26 00:53:23;;;;;;;58.00;32.33;;;;;;;-10.49;100.00;98808.31;2086352;28;20222;-73
2021/12/26 00:54:26;;;;;;;62.13;34.40;;;;;;;-10.50;100.00;98805.91;2078555;28;20310;-72
2021/12/26 00:55:27;;;;;;;66.32;32.97;;;;;;;-10.55;100.00;98803.81;2078667;28;20239;-73
2021/12/26 00:56:30;;;;;;;59.83;33.33;;;;;;;-10.55;100.00;98798.66;2078607;28;20244;-74
2021/12/26 00:57:33;;;;;;;63.53;33.83;;;;;;;-10.59;100.00;98802.56;2086816;28;20243;-73
2021/12/26 00:58:34;;;;;;;61.38;34.72;;;;;;;-10.57;100.00;98803.19;2086894;28;20222;-73
2021/12/26 00:59:35;;;;;;;59.13;33.50;;;;;;;-10.61;100.00;98801.91;2087644;28;20238;-73
2021/12/26 01:00:46;;;;;;;64.10;33.73;;;;;;;-10.63;100.00;98801.28;2086846;28;20218;-73
2021/12/26 01:01:47;;;;;;;63.25;34.45;;;;;;;-10.67;100.00;98795.66;2079609;28;20598;-73
2021/12/26 01:02:49;;;;;;;62.97;35.87;;;;;;;-10.68;100.00;98795.84;2086790;28;20231;-73
2021/12/26 01:03:52;;;;;;;65.07;35.60;;;;;;;-10.69;100.00;98802.72;2087457;28;20227;-73
2021/12/26 01:04:53;;;;;;;66.05;34.85;;;;;;;-10.72;100.00;98805.66;2086421;28;20280;-73
2021/12/26 01:05:56;;;;;;;67.35;35.78;;;;;;;-10.73;100.00;98810.97;2078274;28;20282;-73
2021/12/26 01:06:58;;;;;;;65.43;34.97;;;;;;;-10.77;100.00;98807.09;2078708;28;20227;-73
2021/12/26 01:08:03;;;;;;;65.78;35.60;;;;;;;-10.80;100.00;98800.53;2078532;28;20307;-73
2021/12/26 01:09:08;;;;;;;67.18;35.75;;;;;;;-10.81;100.00;98808.41;2078648;28;20234;-76
2021/12/26 01:10:19;;;;;;;72.07;34.72;;;;;;;-10.79;100.00;98806.47;2086729;28;20628;-73
2021/12/26 01:11:33;;;;;;;65.70;35.88;;;;;;;-10.81;100.00;98803.28;2079816;28;20276;-73
2021/12/26 01:12:38;;;;;;;62.70;35.13;;;;;;;-10.81;100.00;98798.13;2088524;28;20218;-73
2021/12/26 01:13:39;;;;;;;66.38;36.25;;;;;;;-10.81;100.00;98798.13;2086352;28;20225;-73
2021/12/26 01:15:09;;;;;;;64.50;34.00;;;;;;;-10.85;100.00;98801.03;2084577;28;20229;-73
2021/12/26 01:16:15;;;;;;;72.40;35.47;;;;;;;-10.84;100.00;98799.25;2087145;28;20250;-73
2021/12/26 01:17:22;;;;;;;68.25;34.70;;;;;;;-10.87;100.00;98797.78;2086650;28;20233;-73
2021/12/26 01:18:50;;;;;;;66.45;35.72;;;;;;;-10.88;100.00;98806.50;2085538;28;20753;-73
2021/12/26 01:19:53;;;;;;;66.25;35.50;;;;;;;-10.88;100.00;98809.06;2086694;28;20261;-73
2021/12/26 01:21:00;;;;;;;67.10;34.95;;;;;;;-10.90;100.00;98805.06;2078252;28;20231;-73
2021/12/26 01:22:01;;;;;;;62.72;35.65;;;;;;;-10.92;100.00;98807.81;2078935;28;20224;-73
2021/12/26 01:23:03;;;;;;;67.67;36.27;;;;;;;-10.94;100.00;98811.53;2078592;28;20277;-73
2021/12/26 01:24:06;;;;;;;70.50;35.22;;;;;;;-10.97;100.00;98810.06;2078545;28;20674;-73
2021/12/26 01:25:09;;;;;;;72.70;36.05;;;;;;;-10.96;100.00;98801.38;2078485;28;20228;-73
2021/12/26 01:26:11;;;;;;;76.30;36.67;;;;;;;-10.96;100.00;98800.56;2078715;28;20572;-73
2021/12/26 01:27:13;;;;;;;73.30;36.35;;;;;;;-10.98;100.00;98805.88;2078446;28;20314;-73
2021/12/26 01:28:14;;;;;;;68.13;37.05;;;;;;;-10.99;100.00;98804.28;2086092;28;20585;-73
2021/12/26 01:29:16;;;;;;;71.67;37.33;;;;;;;-10.99;100.00;98801.69;2078129;28;20230;-73
2021/12/26 01:30:17;;;;;;;68.68;36.33;;;;;;;-10.97;100.00;98792.03;2086476;28;20464;-73
2021/12/26 01:31:25;;;;;;;71.63;37.08;;;;;;;-10.96;100.00;98792.84;2078330;28;20227;-73
2021/12/26 01:32:37;;;;;;;68.00;37.05;;;;;;;-10.96;100.00;98801.38;2087717;28;20283;-74
2021/12/26 01:34:01;;;;;;;74.13;36.67;;;;;;;-10.99;100.00;98799.13;2086232;28;20219;-73
2021/12/26 01:35:18;;;;;;;70.63;36.33;;;;;;;-11.00;100.00;98792.38;2080897;28;20219;-73
2021/12/26 01:36:35;;;;;;;78.90;37.58;;;;;;;-11.01;100.00;98792.53;2086302;28;20728;-73
2021/12/26 01:37:55;;;;;;;64.70;36.95;;;;;;;-11.04;100.00;98795.44;2086158;28;20234;-73
2021/12/26 01:39:25;;;;;;;66.03;36.30;;;;;;;-11.05;100.00;98797.19;2070470;28;20591;-74
2021/12/26 01:40:50;;;;;;;70.78;35.65;;;;;;;-11.09;100.00;98793.38;2086565;28;21094;-73
2021/12/26 01:42:10;;;;;;;70.70;36.30;;;;;;;-11.12;100.00;98797.06;2086291;28;20712;-73
2021/12/26 01:43:31;;;;;;;78.35;36.20;;;;;;;-11.13;100.00;98797.22;2086089;28;20222;-73
2021/12/26 01:44:41;;;;;;;83.47;36.40;;;;;;;-11.20;100.00;98788.56;2086077;28;20227;-73
2021/12/26 01:45:48;;;;;;;77.10;37.42;;;;;;;-11.15;100.00;98796.59;2086373;28;20222;-73
2021/12/26 01:46:49;;;;;;;73.13;36.33;;;;;;;-11.18;100.00;98787.41;2078351;28;20757;-73
2021/12/26 01:47:58;;;;;;;75.45;37.75;;;;;;;-11.20;100.00;98788.56;2086284;28;20253;-73
2021/12/26 01:49:04;;;;;;;75.28;38.20;;;;;;;-11.21;100.00;98786.94;2086468;28;20701;-73
2021/12/26 01:50:07;;;;;;;77.85;39.03;;;;;;;-11.22;100.00;98785.31;2086494;28;20665;-73
2021/12/26 01:51:09;;;;;;;73.45;37.97;;;;;;;-11.24;100.00;98792.41;2078222;28;20682;-73
2021/12/26 01:52:13;;;;;;;72.55;37.03;;;;;;;-11.24;100.00;98779.53;2078147;28;20658;-73
2021/12/26 01:53:14;;;;;;;75.38;37.67;;;;;;;-11.28;100.00;98779.06;2086570;28;20237;-73
2021/12/26 01:54:28;;;;;;;74.70;38.08;;;;;;;-11.23;100.00;98788.88;2078249;28;20652;-74
2021/12/26 01:55:39;;;;;;;75.28;36.40;;;;;;;-11.27;100.00;98787.59;2079565;28;20717;-72
2021/12/26 01:56:42;;;;;;;74.10;37.90;;;;;;;-11.26;100.00;98794.34;2079189;28;20593;-73
2021/12/26 01:57:44;;;;;;;85.80;40.10;;;;;;;-11.28;100.00;98786.78;2078418;28;20236;-73
2021/12/26 01:58:52;;;;;;;78.57;38.47;;;;;;;-11.28;100.00;98786.00;2078333;28;20219;-73
2021/12/26 02:00:12;;;;;;;72.95;37.22;;;;;;;-11.31;100.00;98789.69;2080905;28;20222;-73
2021/12/26 02:01:23;;;;;;;79.32;37.30;;;;;;;-11.32;100.00;98795.00;2086156;28;20230;-73
2021/12/26 02:02:24;;;;;;;81.68;39.55;;;;;;;-11.35;100.00;98785.03;2087100;28;20230;-73
2021/12/26 02:03:27;;;;;;;72.20;38.00;;;;;;;-11.36;100.00;98786.00;2086319;28;20720;-73
2021/12/26 02:04:28;;;;;;;79.60;39.33;;;;;;;-11.33;100.00;98785.66;2086460;28;20222;-73
2021/12/26 02:05:31;;;;;;;81.50;37.67;;;;;;;-11.33;100.00;98791.63;2086391;28;20223;-73
2021/12/26 02:06:41;;;;;;;78.03;37.97;;;;;;;-11.34;100.00;98784.06;2078465;28;20306;-74
2021/12/26 02:07:42;;;;;;;77.20;37.65;;;;;;;-11.33;100.00;98785.66;2086061;28;20466;-73
2021/12/26 02:08:44;;;;;;;78.22;37.15;;;;;;;-11.35;100.00;98785.03;2086289;28;20214;-73
2021/12/26 02:09:45;;;;;;;78.80;37.92;;;;;;;-11.33;100.00;98785.66;2078183;28;20226;-73
2021/12/26 02:10:51;;;;;;;73.57;36.83;;;;;;;-11.34;100.00;98791.78;2086456;28;20769;-73
2021/12/26 02:11:52;;;;;;;79.10;38.67;;;;;;;-11.35;100.00;98785.03;2077866;28;20314;-74
2021/12/26 02:12:56;;;;;;;80.00;38.72;;;;;;;-11.38;100.00;98786.16;2086230;28;20232;-73
2021/12/26 02:13:57;;;;;;;81.18;39.50;;;;;;;-11.35;100.00;98785.03;2086323;28;20227;-73
2021/12/26 02:15:00;;;;;;;73.78;37.60;;;;;;;-11.35;100.00;98790.19;2078327;28;20277;-73
2021/12/26 02:16:10;;;;;;;86.10;39.97;;;;;;;-11.36;100.00;98794.53;2079058;28;20246;-73
2021/12/26 02:17:15;;;;;;;78.68;39.00;;;;;;;-11.34;100.00;98787.44;2086223;28;20246;-73
2021/12/26 02:18:16;;;;;;;79.22;38.42;;;;;;;-11.36;100.00;98791.16;2078691;28;20223;-73
2021/12/26 02:19:19;;;;;;;86.60;40.25;;;;;;;-11.36;100.00;98797.09;2078234;28;20222;-73
2021/12/26 02:20:31;;;;;;;72.70;38.90;;;;;;;-11.37;100.00;98786.97;2086288;28;20626;-73
2021/12/26 02:21:54;;;;;;;68.85;37.33;;;;;;;-11.35;100.00;98788.41;2087705;28;20306;-73
2021/12/26 02:23:00;;;;;;;77.15;38.55;;;;;;;-11.41;100.00;98787.28;2085711;28;20227;-73
2021/12/26 02:24:11;;;;;;;84.45;38.75;;;;;;;-11.35;100.00;98792.75;2086412;28;20701;-73
2021/12/26 02:25:26;;;;;;;78.25;38.83;;;;;;;-11.38;100.00;98790.50;2086693;28;20256;-73
2021/12/26 02:27:50;;;;;;;84.43;38.90;;;;;;;-11.40;100.00;98793.22;2094167;28;20687;-73
2021/12/26 02:28:51;;;;;;;80.82;39.30;;;;;;;-11.40;100.00;98795.81;2086515;28;20237;-73
2021/12/26 02:29:52;;;;;;;79.43;39.60;;;;;;;-11.40;100.00;98788.09;2077453;28;20231;-74
2021/12/26 02:30:55;;;;;;;81.18;38.08;;;;;;;-11.41;100.00;98791.63;2077742;28;20235;-73
2021/12/26 02:31:56;;;;;;;84.15;39.80;;;;;;;-11.43;100.00;98789.22;2078040;28;20235;-73
2021/12/26 02:33:00;;;;;;;83.72;38.38;;;;;;;-11.44;100.00;98787.63;2086384;28;20230;-73
2021/12/26 02:34:02;;;;;;;80.03;38.70;;;;;;;-11.45;100.00;98788.59;2086369;28;20685;-73
2021/12/26 02:35:05;;;;;;;77.68;39.05;;;;;;;-11.46;100.00;98799.03;2086306;28;20218;-73
2021/12/26 02:36:09;;;;;;;81.05;39.70;;;;;;;-11.48;100.00;98786.31;2086453;28;20677;-73
2021/12/26 02:37:10;;;;;;;82.20;38.58;;;;;;;-11.51;100.00;98791.00;2086648;28;20662;-73
2021/12/26 02:38:13;;;;;;;83.57;40.20;;;;;;;-11.47;100.00;98797.41;2085751;28;20292;-73
2021/12/26 02:39:15;;;;;;;79.32;40.30;;;;;;;-11.50;100.00;98795.97;2077894;28;20231;-73
2021/12/26 02:40:18;;;;;;;80.45;40.15;;;;;;;-11.50;100.00;98795.16;2079534;28;20633;-73
2021/12/26 02:41:22;;;;;;;89.10;41.78;;;;;;;-11.49;100.00;98796.78;2079796;28;20219;-73
2021/12/26 02:42:23;;;;;;;84.65;39.85;;;;;;;-11.50;100.00;98800.31;2079619;28;20708;-73
2021/12/26 02:43:29;;;;;;;88.40;39.95;;;;;;;-11.52;100.00;98790.19;2080033;28;20644;-73
2021/12/26 02:44:30;;;;;;;85.03;39.35;;;;;;;-11.55;100.00;98790.53;2080066;28;20215;-73
2021/12/26 02:45:32;;;;;;;83.72;39.85;;;;;;;-11.52;100.00;98790.19;2079670;28;20680;-73
2021/12/26 02:46:33;;;;;;;83.70;38.58;;;;;;;-11.52;100.00;98787.63;2079831;28;20223;-73
2021/12/26 02:47:38;;;;;;;88.60;39.77;;;;;;;-11.52;100.00;98790.19;2079788;28;20247;-72
2021/12/26 02:48:43;;;;;;;80.40;38.72;;;;;;;-11.53;100.00;98782.63;2079790;28;20218;-73
2021/12/26 02:49:46;;;;;;;81.38;39.15;;;;;;;-11.53;100.00;98787.78;2088930;28;20301;-73
2021/12/26 02:50:55;;;;;;;84.90;40.88;;;;;;;-11.53;100.00;98783.44;2087843;28;20777;-74
2021/12/26 02:51:59;;;;;;;89.50;40.97;;;;;;;-11.53;100.00;98774.91;2080236;28;20227;-73
2021/12/26 02:53:01;;;;;;;88.65;41.13;;;;;;;-11.55;100.00;98780.22;2088055;28;20227;-73
2021/12/26 02:54:03;;;;;;;79.22;39.95;;;;;;;-11.54;100.00;98783.59;2095818;28;20580;-73
2021/12/26 02:55:05;;;;;;;86.55;40.25;;;;;;;-11.54;100.00;98779.25;2096061;28;20226;-73
2021/12/26 02:56:08;;;;;;;92.13;40.53;;;;;;;-11.53;100.00;98778.28;2087861;28;20689;-73
2021/12/26 02:57:10;;;;;;;88.97;40.50;;;;;;;-11.54;100.00;98770.75;2079603;28;20227;-73
2021/12/26 02:58:12;;;;;;;87.60;38.03;;;;;;;-11.55;100.00;98769.94;2079414;28;20224;-73
2021/12/26 02:59:12;;;;;;;95.70;40.45;;;;;;;-11.55;100.00;98775.09;2079633;28;20220;-73
2021/12/26 03:00:20;;;;;;;85.00;38.43;;;;;;;-11.54;100.00;98773.31;2079548;28;20298;-73
2021/12/26 03:01:23;;;;;;;86.15;39.30;;;;;;;-11.54;100.00;98783.59;2087779;28;20576;-73
2021/12/26 03:02:26;;;;;;;75.47;38.55;;;;;;;-11.54;100.00;98776.69;2087345;28;20227;-73
2021/12/26 03:03:27;;;;;;;82.30;38.35;;;;;;;-11.54;100.00;98783.59;2087810;28;20617;-73
2021/12/26 03:04:29;;;;;;;92.70;41.30;;;;;;;-11.54;100.00;98791.31;2087746;28;20218;-73
2021/12/26 03:05:31;;;;;;;90.43;40.88;;;;;;;-11.52;100.00;98784.25;2079233;28;20759;-73
2021/12/26 03:06:39;;;;;;;95.15;43.45;;;;;;;-11.51;100.00;98788.41;2087503;28;20306;-73
2021/12/26 03:07:42;;;;;;;90.18;42.22;;;;;;;-11.51;100.00;98786.66;2088243;28;20230;-73
2021/12/26 03:08:46;;;;;;;95.07;41.85;;;;;;;-11.47;100.00;98787.13;2087725;28;20225;-73
2021/12/26 03:09:49;;;;;;;96.32;42.53;;;;;;;-11.38;100.00;98785.34;2079871;28;20257;-74
2021/12/26 03:10:52;;;;;;;98.13;42.97;;;;;;;-11.32;100.00;98784.69;2087785;28;20280;-73
2021/12/26 03:11:53;;;;;;;92.45;43.40;;;;;;;-11.28;100.00;98783.44;2087504;28;20260;-74
2021/12/26 03:12:56;;;;;;;94.53;43.07;;;;;;;-11.27;100.00;98787.59;2087528;28;20256;-73
2021/12/26 03:14:00;;;;;;;91.10;42.20;;;;;;;-11.28;100.00;98784.22;2079858;28;20300;-73
2021/12/26 03:15:02;;;;;;;95.80;42.22;;;;;;;-11.26;100.00;98792.59;2079997;28;20223;-73
2021/12/26 03:16:05;;;;;;;96.60;41.92;;;;;;;-11.26;100.00;98789.22;2087704;28;20313;-73
2021/12/26 03:17:08;;;;;;;97.75;43.17;;;;;;;-11.28;100.00;98789.38;2087485;28;20245;-73
2021/12/26 03:18:11;;;;;;;104.88;42.15;;;;;;;-11.26;100.00;98797.72;2079287;28;20285;-73
2021/12/26 03:19:12;;;;;;;104.93;43.65;;;;;;;-11.28;100.00;98794.53;2087616;28;20265;-73
2021/12/26 03:20:15;;;;;;;92.10;41.93;;;;;;;-11.27;100.00;98793.56;2087479;28;20354;-72
2021/12/26 03:21:16;;;;;;;92.97;42.42;;;;;;;-11.28;100.00;98791.16;2079659;28;20223;-73
2021/12/26 03:22:20;;;;;;;90.57;40.33;;;;;;;-11.32;100.00;98787.28;2087433;28;20803;-73
2021/12/26 03:23:26;;;;;;;102.43;42.60;;;;;;;-11.30;100.00;98793.06;2087561;28;20242;-73
2021/12/26 03:24:27;;;;;;;92.28;41.38;;;;;;;-11.30;100.00;98799.00;2079489;28;20314;-73
2021/12/26 03:25:30;;;;;;;107.10;45.23;;;;;;;-11.29;100.00;98794.66;2087545;28;20214;-73
2021/12/26 03:26:30;;;;;;;96.78;42.22;;;;;;;-11.31;100.00;98791.44;2087477;28;20230;-73
2021/12/26 03:27:32;;;;;;;92.87;41.57;;;;;;;-11.29;100.00;98794.66;2079492;28;20302;-73
2021/12/26 03:28:33;;;;;;;94.82;42.72;;;;;;;-11.26;100.00;98794.34;2087557;28;20245;-73
2021/12/26 03:29:37;;;;;;;92.47;42.38;;;;;;;-11.28;100.00;98794.53;2087588;28;20658;-73
2021/12/26 03:30:46;;;;;;;89.97;41.83;;;;;;;-11.27;100.00;98792.75;2079940;28;20285;-72
2021/12/26 03:31:47;;;;;;;100.13;43.53;;;;;;;-11.26;100.00;98800.31;2079271;28;20243;-73
2021/12/26 03:32:49;;;;;;;94.35;43.70;;;;;;;-11.24;100.00;98803.50;2087380;28;20311;-73
2021/12/26 03:33:51;;;;;;;87.40;42.28;;;;;;;-11.25;100.00;98798.53;2087497;28;20269;-73
2021/12/26 03:34:51;;;;;;;88.15;41.22;;;;;;;-11.20;100.00;98804.00;2087143;28;20227;-76
2021/12/26 03:35:54;;;;;;;99.60;43.20;;;;;;;-11.14;100.00;98814.44;2079129;28;20231;-73
2021/12/26 03:36:56;;;;;;;98.50;43.95;;;;;;;-11.10;100.00;98814.94;2079419;28;20243;-73
2021/12/26 03:38:01;;;;;;;107.45;45.85;;;;;;;-11.07;100.00;98798.34;2087410;28;20588;-73
2021/12/26 03:39:34;;;;;;;90.60;42.33;;;;;;;-10.98;100.00;98807.66;2074479;28;20238;-73
2021/12/26 03:40:36;;;;;;;92.22;43.00;;;;;;;-10.94;100.00;98809.75;2087356;28;20226;-73
2021/12/26 03:41:37;;;;;;;97.97;45.42;;;;;;;-10.94;100.00;98806.38;2078968;28;20681;-76
2021/12/26 03:42:38;;;;;;;95.32;44.45;;;;;;;-10.89;100.00;98812.63;2079300;28;20231;-74
2021/12/26 03:43:40;;;;;;;96.70;45.10;;;;;;;-10.88;100.00;98810.84;2079072;28;20709;-74
2021/12/26 03:44:42;;;;;;;101.15;45.00;;;;;;;-10.89;100.00;98807.47;2079257;28;20311;-73
2021/12/26 03:45:45;;;;;;;92.72;44.60;;;;;;;-10.88;100.00;98813.41;2079229;28;20219;-73
2021/12/26 03:46:46;;;;;;;100.25;44.25;;;;;;;-10.88;100.00;98808.28;2087409;28;20700;-73
2021/12/26 03:47:50;;;;;;;94.83;44.03;;;;;;;-10.92;100.00;98802.66;2079219;28;20617;-73
2021/12/26 03:48:51;;;;;;;105.45;45.75;;;;;;;-10.91;100.00;98814.56;2087344;28;20229;-73
2021/12/26 03:49:53;;;;;;;97.40;45.43;;;;;;;-10.95;100.00;98800.41;2078694;28;20227;-74
2021/12/26 03:50:58;;;;;;;106.88;44.15;;;;;;;-10.94;100.00;98809.75;2079220;28;20239;-73
2021/12/26 03:52:01;;;;;;;86.70;45.00;;;;;;;-10.95;100.00;98802.16;2078976;28;20231;-73
2021/12/26 03:53:02;;;;;;;103.80;45.72;;;;;;;-10.98;100.00;98798.16;2079165;28;20246;-73
2021/12/26 03:54:06;;;;;;;85.68;41.83;;;;;;;-10.99;100.00;98801.69;2079160;28;20567;-73
2021/12/26 03:55:08;;;;;;;96.70;42.70;;;;;;;-11.01;100.00;98797.69;2079350;28;20689;-74
2021/12/26 03:56:10;;;;;;;96.40;44.38;;;;;;;-11.03;100.00;98805.59;2078731;28;20705;-73
2021/12/26 03:57:15;;;;;;;98.20;43.25;;;;;;;-11.04;100.00;98803.16;2079524;28;20223;-73
2021/12/26 03:58:20;;;;;;;102.03;46.20;;;;;;;-11.06;100.00;98805.09;2087665;28;20607;-73
2021/12/26 03:59:21;;;;;;;101.57;45.30;;;;;;;-11.05;100.00;98812.66;2087257;28;20564;-73
2021/12/26 04:00:25;;;;;;;100.40;45.90;;;;;;;-11.06;100.00;98812.81;2078559;28;20282;-73
2021/12/26 04:01:25;;;;;;;104.38;45.15;;;;;;;-11.09;100.00;98815.75;2079360;28;20306;-73
2021/12/26 04:02:27;;;;;;;115.10;48.77;;;;;;;-11.09;100.00;98815.75;2078933;28;20265;-73
2021/12/26 04:03:28;;;;;;;110.07;47.95;;;;;;;-11.09;100.00;98806.25;2078917;28;20686;-73
2021/12/26 04:04:36;;;;;;;99.30;45.85;;;;;;;-11.12;100.00;98804.81;2079741;28;20613;-73
2021/12/26 04:05:37;;;;;;;105.38;48.63;;;;;;;-11.10;100.00;98822.66;2079068;28;20228;-74
2021/12/26 04:06:39;;;;;;;103.72;46.15;;;;;;;-11.10;100.00;98820.09;2078740;28;20226;-73
2021/12/26 04:07:40;;;;;;;106.30;47.80;;;;;;;-11.11;100.00;98818.47;2087162;28;20246;-73
2021/12/26 04:08:42;;;;;;;94.75;43.75;;;;;;;-11.12;100.00;98822.00;2078997;28;20592;-74
2021/12/26 04:09:43;;;;;;;98.72;47.20;;;;;;;-11.15;100.00;98824.91;2087135;28;20238;-73
2021/12/26 04:10:47;;;;;;;104.10;48.92;;;;;;;-11.15;100.00;98833.44;2078992;28;20215;-73
2021/12/26 04:11:50;;;;;;;106.63;48.85;;;;;;;-11.16;100.00;98823.31;2087054;28;20227;-74
2021/12/26 04:12:55;;;;;;;111.13;49.97;;;;;;;-11.17;100.00;98821.69;2078680;28;20231;-74
2021/12/26 04:13:58;;;;;;;104.38;45.78;;;;;;;-11.18;100.00;98825.25;2087153;28;20234;-73
2021/12/26 04:15:01;;;;;;;110.15;48.15;;;;;;;-11.18;100.00;98827.81;2079297;28;20252;-73
2021/12/26 04:16:02;;;;;;;111.22;46.30;;;;;;;-11.19;100.00;98823.63;2087328;28;20223;-73
2021/12/26 04:17:04;;;;;;;104.30;46.22;;;;;;;-11.21;100.00;98826.34;2087128;28;20735;-73
2021/12/26 04:18:06;;;;;;;117.95;47.60;;;;;;;-11.24;100.00;98824.09;2079139;28;20697;-73
2021/12/26 04:19:09;;;;;;;97.78;44.35;;;;;;;-11.24;100.00;98828.47;2078755;28;20224;-73
2021/12/26 04:20:12;;;;;;;102.70;46.40;;;;;;;-11.25;100.00;98832.00;2079046;28;20219;-73
2021/12/26 04:21:13;;;;;;;95.82;46.42;;;;;;;-11.28;100.00;98829.75;2079123;28;20250;-73
2021/12/26 04:22:26;;;;;;;102.22;44.65;;;;;;;-11.29;100.00;98831.53;2080008;28;20224;-73
2021/12/26 04:23:28;;;;;;;106.22;43.67;;;;;;;-11.31;100.00;98824.91;2087105;28;20308;-74
2021/12/26 04:24:30;;;;;;;94.15;43.72;;;;;;;-11.33;100.00;98829.44;2078937;28;20293;-73
2021/12/26 04:25:32;;;;;;;102.15;47.03;;;;;;;-11.33;100.00;98829.44;2087263;28;20717;-73
2021/12/26 04:26:34;;;;;;;99.07;46.05;;;;;;;-11.32;100.00;98838.75;2086991;28;20241;-73
2021/12/26 04:27:36;;;;;;;104.68;46.97;;;;;;;-11.34;100.00;98838.13;2087185;28;20350;-73
2021/12/26 04:28:37;;;;;;;91.90;45.20;;;;;;;-11.33;100.00;98844.88;2086664;28;20284;-75
2021/12/26 04:29:39;;;;;;;105.78;47.00;;;;;;;-11.32;100.00;98846.47;2087161;28;20628;-73
2021/12/26 04:30:40;;;;;;;109.40;47.63;;;;;;;-11.33;100.00;98850.03;2087049;28;20269;-73
2021/12/26 04:31:42;;;;;;;106.97;48.70;;;;;;;-11.34;100.00;98843.28;2086875;28;20843;-73
2021/12/26 04:32:43;;;;;;;105.30;46.10;;;;;;;-11.34;100.00;98849.22;2087001;28;20696;-73
2021/12/26 04:33:46;;;;;;;109.65;48.25;;;;;;;-11.35;100.00;98849.38;2078705;28;20219;-74
2021/12/26 04:34:47;;;;;;;108.10;47.50;;;;;;;-11.35;100.00;98851.97;2079079;28;20779;-73
2021/12/26 04:35:49;;;;;;;108.68;47.35;;;;;;;-11.36;100.00;98855.50;2078872;28;20709;-73
2021/12/26 04:36:51;;;;;;;101.22;48.20;;;;;;;-11.38;100.00;98849.69;2087167;28;20239;-73
2021/12/26 04:37:52;;;;;;;106.93;48.33;;;;;;;-11.41;100.00;98854.19;2086702;28;20588;-73
2021/12/26 04:38:53;;;;;;;103.10;47.67;;;;;;;-11.42;100.00;98852.59;2086934;28;20334;-73
2021/12/26 04:39:54;;;;;;;110.53;48.55;;;;;;;-11.42;100.00;98847.44;2078932;28;20227;-73
2021/12/26 04:41:00;;;;;;;111.55;47.97;;;;;;;-11.43;100.00;98850.19;2087053;28;20231;-73
2021/12/26 04:42:33;;;;;;;98.03;45.53;;;;;;;-11.48;100.00;98853.22;2090728;28;20222;-73
2021/12/26 04:44:14;;;;;;;106.82;45.25;;;;;;;-11.47;100.00;98852.25;2069396;28;20721;-73
2021/12/26 04:45:36;;;;;;;102.45;46.53;;;;;;;-11.47;100.00;98854.84;2053225;28;20220;-73
2021/12/26 04:46:56;;;;;;;108.05;47.10;;;;;;;-11.46;100.00;98853.09;2069571;28;20640;-73
2021/12/26 04:48:02;;;;;;;104.30;48.35;;;;;;;-11.46;100.00;98851.31;2062093;28;20845;-73
2021/12/26 04:49:07;;;;;;;118.38;50.22;;;;;;;-11.46;100.00;98856.47;2054691;28;20587;-73
2021/12/26 04:50:12;;;;;;;115.47;52.28;;;;;;;-11.47;100.00;98859.97;2079629;28;20226;-74